sensor_id;sensor_type;location;lat;lon;timestamp;P1;durP1;ratioP1;P2;durP2;ratioP2
3712;SDS011;1872;51.406;6.856;2023-03-01T00:02:02;17.40;;;13.67;;
3712;SDS011;1872;51.406;6.856;2023-03-01T00:04:29;19.53;;;12.63;;
3712;SDS011;1872;51.406;6.856;2023-03-01T00:06:55;14.17;;;12.67;;
3712;SDS011;1872;51.406;6.856;2023-03-01T00:09:21;13.70;;;11.23;;
3712;SDS011;1872;51.406;6.856;2023-03-01T00:11:47;14.37;;;12.83;;
3712;SDS011;1872;51.406;6.856;2023-03-01T00:14:13;19.40;;;13.30;;
3712;SDS011;1872;51.406;6.856;2023-03-01T00:16:41;17.70;;;13.00;;
3712;SDS011;1872;51.406;6.856;2023-03-01T00:19:26;14.40;;;12.60;;
3712;SDS011;1872;51.406;6.856;2023-03-01T00:21:52;16.10;;;14.40;;
3712;SDS011;1872;51.406;6.856;2023-03-01T00:24:17;14.83;;;12.50;;
3712;SDS011;1872;51.406;6.856;2023-03-01T00:26:43;16.50;;;13.17;;
3712;SDS011;1872;51.406;6.856;2023-03-01T00:29:09;16.20;;;13.60;;
3712;SDS011;1872;51.406;6.856;2023-03-01T00:31:35;14.67;;;12.10;;
3712;SDS011;1872;51.406;6.856;2023-03-01T00:34:01;16.53;;;12.80;;
3712;SDS011;1872;51.406;6.856;2023-03-01T00:36:30;16.90;;;12.50;;
3712;SDS011;1872;51.406;6.856;2023-03-01T00:38:58;16.67;;;12.40;;
3712;SDS011;1872;51.406;6.856;2023-03-01T00:41:24;17.77;;;12.83;;
3712;SDS011;1872;51.406;6.856;2023-03-01T00:43:51;18.93;;;14.10;;
3712;SDS011;1872;51.406;6.856;2023-03-01T00:46:19;17.50;;;12.03;;
3712;SDS011;1872;51.406;6.856;2023-03-01T00:48:46;20.90;;;14.40;;
3712;SDS011;1872;51.406;6.856;2023-03-01T00:51:13;18.30;;;13.50;;
3712;SDS011;1872;51.406;6.856;2023-03-01T00:53:41;15.13;;;12.13;;
3712;SDS011;1872;51.406;6.856;2023-03-01T00:56:08;16.10;;;11.97;;
3712;SDS011;1872;51.406;6.856;2023-03-01T00:58:35;14.70;;;12.33;;
3712;SDS011;1872;51.406;6.856;2023-03-01T01:01:06;15.70;;;12.23;;
3712;SDS011;1872;51.406;6.856;2023-03-01T01:03:41;15.73;;;12.73;;
3712;SDS011;1872;51.406;6.856;2023-03-01T01:06:12;14.40;;;12.70;;
3712;SDS011;1872;51.406;6.856;2023-03-01T01:08:39;16.50;;;12.77;;
3712;SDS011;1872;51.406;6.856;2023-03-01T01:11:05;14.50;;;11.70;;
3712;SDS011;1872;51.406;6.856;2023-03-01T01:13:33;18.27;;;12.90;;
3712;SDS011;1872;51.406;6.856;2023-03-01T01:16:02;17.13;;;12.97;;
3712;SDS011;1872;51.406;6.856;2023-03-01T01:18:28;14.50;;;12.47;;
3712;SDS011;1872;51.406;6.856;2023-03-01T01:20:53;14.67;;;12.57;;
3712;SDS011;1872;51.406;6.856;2023-03-01T01:23:21;14.13;;;12.63;;
3712;SDS011;1872;51.406;6.856;2023-03-01T01:25:47;18.10;;;14.70;;
3712;SDS011;1872;51.406;6.856;2023-03-01T01:28:13;16.53;;;13.77;;
3712;SDS011;1872;51.406;6.856;2023-03-01T01:30:38;13.43;;;11.70;;
3712;SDS011;1872;51.406;6.856;2023-03-01T01:33:04;16.10;;;12.30;;
3712;SDS011;1872;51.406;6.856;2023-03-01T01:35:30;16.10;;;12.90;;
3712;SDS011;1872;51.406;6.856;2023-03-01T01:37:55;16.90;;;12.40;;
3712;SDS011;1872;51.406;6.856;2023-03-01T01:40:21;17.07;;;13.13;;
3712;SDS011;1872;51.406;6.856;2023-03-01T01:42:47;17.60;;;12.50;;
3712;SDS011;1872;51.406;6.856;2023-03-01T01:45:27;20.27;;;13.37;;
3712;SDS011;1872;51.406;6.856;2023-03-01T01:47:57;14.00;;;12.23;;
3712;SDS011;1872;51.406;6.856;2023-03-01T01:50:27;18.20;;;13.53;;
3712;SDS011;1872;51.406;6.856;2023-03-01T01:53:03;16.53;;;12.70;;
3712;SDS011;1872;51.406;6.856;2023-03-01T01:55:42;16.00;;;12.43;;
3712;SDS011;1872;51.406;6.856;2023-03-01T01:58:14;16.17;;;12.83;;
3712;SDS011;1872;51.406;6.856;2023-03-01T02:00:43;16.63;;;13.20;;
3712;SDS011;1872;51.406;6.856;2023-03-01T02:03:10;15.70;;;12.20;;
3712;SDS011;1872;51.406;6.856;2023-03-01T02:05:47;14.17;;;12.40;;
3712;SDS011;1872;51.406;6.856;2023-03-01T02:08:19;16.90;;;13.17;;
3712;SDS011;1872;51.406;6.856;2023-03-01T02:10:46;14.30;;;12.73;;
3712;SDS011;1872;51.406;6.856;2023-03-01T02:13:14;17.80;;;13.13;;
3712;SDS011;1872;51.406;6.856;2023-03-01T02:15:40;16.40;;;12.73;;
3712;SDS011;1872;51.406;6.856;2023-03-01T02:18:06;14.07;;;11.67;;
3712;SDS011;1872;51.406;6.856;2023-03-01T02:23:30;16.43;;;12.87;;
3712;SDS011;1872;51.406;6.856;2023-03-01T02:28:56;17.00;;;12.40;;
3712;SDS011;1872;51.406;6.856;2023-03-01T02:31:22;18.17;;;13.00;;
3712;SDS011;1872;51.406;6.856;2023-03-01T02:34:06;20.87;;;12.80;;
3712;SDS011;1872;51.406;6.856;2023-03-01T02:36:37;14.60;;;12.60;;
3712;SDS011;1872;51.406;6.856;2023-03-01T02:39:07;21.80;;;13.80;;
3712;SDS011;1872;51.406;6.856;2023-03-01T02:41:39;17.40;;;12.40;;
3712;SDS011;1872;51.406;6.856;2023-03-01T02:44:09;18.70;;;14.20;;
3712;SDS011;1872;51.406;6.856;2023-03-01T02:46:41;16.83;;;14.00;;
3712;SDS011;1872;51.406;6.856;2023-03-01T02:49:25;16.13;;;13.13;;
3712;SDS011;1872;51.406;6.856;2023-03-01T02:55:09;17.40;;;13.50;;
3712;SDS011;1872;51.406;6.856;2023-03-01T02:57:38;19.40;;;12.57;;
3712;SDS011;1872;51.406;6.856;2023-03-01T03:00:08;17.23;;;13.70;;
3712;SDS011;1872;51.406;6.856;2023-03-01T03:02:44;15.93;;;12.90;;
3712;SDS011;1872;51.406;6.856;2023-03-01T03:05:13;20.63;;;13.97;;
3712;SDS011;1872;51.406;6.856;2023-03-01T03:07:42;14.97;;;12.97;;
3712;SDS011;1872;51.406;6.856;2023-03-01T03:10:10;15.80;;;12.43;;
3712;SDS011;1872;51.406;6.856;2023-03-01T03:12:39;22.27;;;13.53;;
3712;SDS011;1872;51.406;6.856;2023-03-01T03:15:06;16.70;;;13.10;;
3712;SDS011;1872;51.406;6.856;2023-03-01T03:17:40;17.97;;;12.93;;
3712;SDS011;1872;51.406;6.856;2023-03-01T03:20:07;18.40;;;12.57;;
3712;SDS011;1872;51.406;6.856;2023-03-01T03:22:37;20.43;;;12.80;;
3712;SDS011;1872;51.406;6.856;2023-03-01T03:25:06;19.07;;;13.00;;
3712;SDS011;1872;51.406;6.856;2023-03-01T03:27:38;15.77;;;11.87;;
3712;SDS011;1872;51.406;6.856;2023-03-01T03:30:09;17.80;;;12.67;;
3712;SDS011;1872;51.406;6.856;2023-03-01T03:32:40;17.20;;;13.00;;
3712;SDS011;1872;51.406;6.856;2023-03-01T03:35:11;17.30;;;12.50;;
3712;SDS011;1872;51.406;6.856;2023-03-01T03:37:41;18.73;;;13.30;;
3712;SDS011;1872;51.406;6.856;2023-03-01T03:40:26;16.33;;;12.30;;
3712;SDS011;1872;51.406;6.856;2023-03-01T03:42:53;15.87;;;13.33;;
3712;SDS011;1872;51.406;6.856;2023-03-01T03:45:19;17.20;;;13.27;;
3712;SDS011;1872;51.406;6.856;2023-03-01T03:47:45;17.43;;;13.27;;
3712;SDS011;1872;51.406;6.856;2023-03-01T03:50:12;20.33;;;14.20;;
3712;SDS011;1872;51.406;6.856;2023-03-01T03:52:40;16.50;;;12.27;;
3712;SDS011;1872;51.406;6.856;2023-03-01T03:55:06;19.23;;;14.20;;
3712;SDS011;1872;51.406;6.856;2023-03-01T03:57:34;18.17;;;12.40;;
3712;SDS011;1872;51.406;6.856;2023-03-01T04:00:00;18.07;;;13.07;;
3712;SDS011;1872;51.406;6.856;2023-03-01T04:02:30;18.90;;;14.37;;
3712;SDS011;1872;51.406;6.856;2023-03-01T04:04:55;16.90;;;12.83;;
3712;SDS011;1872;51.406;6.856;2023-03-01T04:07:23;17.17;;;13.00;;
3712;SDS011;1872;51.406;6.856;2023-03-01T04:09:49;18.07;;;13.23;;
3712;SDS011;1872;51.406;6.856;2023-03-01T04:12:15;17.90;;;13.10;;
3712;SDS011;1872;51.406;6.856;2023-03-01T04:14:45;17.97;;;13.47;;
3712;SDS011;1872;51.406;6.856;2023-03-01T04:17:11;16.97;;;12.90;;
3712;SDS011;1872;51.406;6.856;2023-03-01T04:19:37;19.07;;;13.50;;
3712;SDS011;1872;51.406;6.856;2023-03-01T04:22:03;21.50;;;12.67;;
3712;SDS011;1872;51.406;6.856;2023-03-01T04:24:34;19.10;;;14.87;;
3712;SDS011;1872;51.406;6.856;2023-03-01T04:27:00;19.30;;;14.93;;
3712;SDS011;1872;51.406;6.856;2023-03-01T04:29:26;17.17;;;12.90;;
3712;SDS011;1872;51.406;6.856;2023-03-01T04:31:52;15.67;;;13.13;;
3712;SDS011;1872;51.406;6.856;2023-03-01T04:34:18;17.33;;;13.63;;
3712;SDS011;1872;51.406;6.856;2023-03-01T04:36:43;19.47;;;15.27;;
3712;SDS011;1872;51.406;6.856;2023-03-01T04:39:09;19.30;;;12.70;;
3712;SDS011;1872;51.406;6.856;2023-03-01T04:41:38;20.77;;;14.33;;
3712;SDS011;1872;51.406;6.856;2023-03-01T04:44:05;24.07;;;13.53;;
3712;SDS011;1872;51.406;6.856;2023-03-01T04:46:31;17.10;;;12.00;;
3712;SDS011;1872;51.406;6.856;2023-03-01T04:48:57;19.40;;;13.47;;
3712;SDS011;1872;51.406;6.856;2023-03-01T04:51:23;16.10;;;13.13;;
3712;SDS011;1872;51.406;6.856;2023-03-01T04:53:49;19.00;;;12.90;;
3712;SDS011;1872;51.406;6.856;2023-03-01T04:56:15;18.17;;;12.70;;
3712;SDS011;1872;51.406;6.856;2023-03-01T04:58:43;22.37;;;13.97;;
3712;SDS011;1872;51.406;6.856;2023-03-01T05:01:10;17.30;;;13.57;;
3712;SDS011;1872;51.406;6.856;2023-03-01T05:03:43;15.33;;;13.73;;
3712;SDS011;1872;51.406;6.856;2023-03-01T05:06:10;15.07;;;12.37;;
3712;SDS011;1872;51.406;6.856;2023-03-01T05:08:37;17.47;;;12.67;;
3712;SDS011;1872;51.406;6.856;2023-03-01T05:11:03;17.47;;;13.33;;
3712;SDS011;1872;51.406;6.856;2023-03-01T05:13:30;20.67;;;13.40;;
3712;SDS011;1872;51.406;6.856;2023-03-01T05:15:57;19.30;;;12.60;;
3712;SDS011;1872;51.406;6.856;2023-03-01T05:18:25;17.10;;;12.90;;
3712;SDS011;1872;51.406;6.856;2023-03-01T05:20:52;17.57;;;12.50;;
3712;SDS011;1872;51.406;6.856;2023-03-01T05:23:21;19.97;;;12.47;;
3712;SDS011;1872;51.406;6.856;2023-03-01T05:25:47;20.70;;;13.97;;
3712;SDS011;1872;51.406;6.856;2023-03-01T05:28:13;19.30;;;13.73;;
3712;SDS011;1872;51.406;6.856;2023-03-01T05:30:39;17.50;;;12.57;;
3712;SDS011;1872;51.406;6.856;2023-03-01T05:33:05;16.50;;;13.23;;
3712;SDS011;1872;51.406;6.856;2023-03-01T05:35:35;17.70;;;13.27;;
3712;SDS011;1872;51.406;6.856;2023-03-01T05:38:01;20.27;;;12.90;;
3712;SDS011;1872;51.406;6.856;2023-03-01T05:40:27;15.70;;;13.20;;
3712;SDS011;1872;51.406;6.856;2023-03-01T05:42:54;17.40;;;13.87;;
3712;SDS011;1872;51.406;6.856;2023-03-01T05:45:21;25.40;;;13.90;;
3712;SDS011;1872;51.406;6.856;2023-03-01T05:47:49;15.60;;;12.00;;
3712;SDS011;1872;51.406;6.856;2023-03-01T05:50:25;17.70;;;12.70;;
3712;SDS011;1872;51.406;6.856;2023-03-01T05:52:57;19.07;;;13.13;;
3712;SDS011;1872;51.406;6.856;2023-03-01T05:55:27;21.77;;;13.67;;
3712;SDS011;1872;51.406;6.856;2023-03-01T05:57:54;17.60;;;12.87;;
3712;SDS011;1872;51.406;6.856;2023-03-01T06:00:22;19.20;;;13.80;;
3712;SDS011;1872;51.406;6.856;2023-03-01T06:02:49;21.13;;;14.63;;
3712;SDS011;1872;51.406;6.856;2023-03-01T06:05:17;20.17;;;14.60;;
3712;SDS011;1872;51.406;6.856;2023-03-01T06:07:44;17.90;;;13.40;;
3712;SDS011;1872;51.406;6.856;2023-03-01T06:10:10;22.50;;;13.20;;
3712;SDS011;1872;51.406;6.856;2023-03-01T06:12:37;17.40;;;13.90;;
3712;SDS011;1872;51.406;6.856;2023-03-01T06:15:05;21.13;;;13.63;;
3712;SDS011;1872;51.406;6.856;2023-03-01T06:17:35;18.50;;;13.37;;
3712;SDS011;1872;51.406;6.856;2023-03-01T06:20:06;18.23;;;13.00;;
3712;SDS011;1872;51.406;6.856;2023-03-01T06:22:36;20.37;;;14.07;;
3712;SDS011;1872;51.406;6.856;2023-03-01T06:25:02;21.27;;;14.70;;
3712;SDS011;1872;51.406;6.856;2023-03-01T06:27:28;18.93;;;13.37;;
3712;SDS011;1872;51.406;6.856;2023-03-01T06:29:56;21.50;;;15.27;;
3712;SDS011;1872;51.406;6.856;2023-03-01T06:32:22;22.87;;;16.53;;
3712;SDS011;1872;51.406;6.856;2023-03-01T06:34:47;19.50;;;14.30;;
3712;SDS011;1872;51.406;6.856;2023-03-01T06:37:14;24.20;;;15.30;;
3712;SDS011;1872;51.406;6.856;2023-03-01T06:39:39;21.67;;;15.30;;
3712;SDS011;1872;51.406;6.856;2023-03-01T06:42:05;20.80;;;13.63;;
3712;SDS011;1872;51.406;6.856;2023-03-01T06:44:32;18.80;;;13.67;;
3712;SDS011;1872;51.406;6.856;2023-03-01T06:46:59;17.40;;;12.23;;
3712;SDS011;1872;51.406;6.856;2023-03-01T06:49:25;16.90;;;12.40;;
3712;SDS011;1872;51.406;6.856;2023-03-01T06:51:51;19.10;;;13.40;;
3712;SDS011;1872;51.406;6.856;2023-03-01T06:54:16;17.97;;;11.97;;
3712;SDS011;1872;51.406;6.856;2023-03-01T06:56:42;20.60;;;12.00;;
3712;SDS011;1872;51.406;6.856;2023-03-01T06:59:11;15.40;;;13.00;;
3712;SDS011;1872;51.406;6.856;2023-03-01T07:01:36;18.33;;;12.83;;
3712;SDS011;1872;51.406;6.856;2023-03-01T07:04:03;19.37;;;13.57;;
3712;SDS011;1872;51.406;6.856;2023-03-01T07:06:29;17.90;;;12.97;;
3712;SDS011;1872;51.406;6.856;2023-03-01T07:08:55;17.17;;;12.40;;
3712;SDS011;1872;51.406;6.856;2023-03-01T07:11:20;18.57;;;12.77;;
3712;SDS011;1872;51.406;6.856;2023-03-01T07:13:46;15.90;;;12.90;;
3712;SDS011;1872;51.406;6.856;2023-03-01T07:16:12;18.47;;;12.57;;
3712;SDS011;1872;51.406;6.856;2023-03-01T07:18:39;18.65;;;14.35;;
3712;SDS011;1872;51.406;6.856;2023-03-01T07:21:06;21.43;;;13.40;;
3712;SDS011;1872;51.406;6.856;2023-03-01T07:23:33;18.13;;;13.30;;
3712;SDS011;1872;51.406;6.856;2023-03-01T07:25:59;16.77;;;12.77;;
3712;SDS011;1872;51.406;6.856;2023-03-01T07:28:25;17.17;;;13.53;;
3712;SDS011;1872;51.406;6.856;2023-03-01T07:30:52;20.70;;;13.63;;
3712;SDS011;1872;51.406;6.856;2023-03-01T07:33:18;18.03;;;13.00;;
3712;SDS011;1872;51.406;6.856;2023-03-01T07:35:43;16.43;;;13.07;;
3712;SDS011;1872;51.406;6.856;2023-03-01T07:38:09;19.80;;;13.73;;
3712;SDS011;1872;51.406;6.856;2023-03-01T07:40:35;17.17;;;13.63;;
3712;SDS011;1872;51.406;6.856;2023-03-01T07:43:00;19.03;;;12.23;;
3712;SDS011;1872;51.406;6.856;2023-03-01T07:45:27;19.00;;;13.77;;
3712;SDS011;1872;51.406;6.856;2023-03-01T07:47:53;19.83;;;14.27;;
3712;SDS011;1872;51.406;6.856;2023-03-01T07:50:19;19.87;;;13.33;;
3712;SDS011;1872;51.406;6.856;2023-03-01T07:52:46;17.73;;;12.03;;
3712;SDS011;1872;51.406;6.856;2023-03-01T07:55:13;17.80;;;13.47;;
3712;SDS011;1872;51.406;6.856;2023-03-01T07:57:42;21.03;;;13.03;;
3712;SDS011;1872;51.406;6.856;2023-03-01T08:00:09;19.57;;;12.80;;
3712;SDS011;1872;51.406;6.856;2023-03-01T08:02:38;18.70;;;13.73;;
3712;SDS011;1872;51.406;6.856;2023-03-01T08:05:07;17.50;;;13.00;;
3712;SDS011;1872;51.406;6.856;2023-03-01T08:07:34;19.80;;;13.03;;
3712;SDS011;1872;51.406;6.856;2023-03-01T08:10:00;20.90;;;12.43;;
3712;SDS011;1872;51.406;6.856;2023-03-01T08:12:25;18.10;;;11.90;;
3712;SDS011;1872;51.406;6.856;2023-03-01T08:14:53;14.43;;;11.60;;
3712;SDS011;1872;51.406;6.856;2023-03-01T08:17:19;23.60;;;13.10;;
3712;SDS011;1872;51.406;6.856;2023-03-01T08:19:44;14.53;;;11.63;;
3712;SDS011;1872;51.406;6.856;2023-03-01T08:22:10;18.63;;;11.97;;
3712;SDS011;1872;51.406;6.856;2023-03-01T08:24:36;16.57;;;12.40;;
3712;SDS011;1872;51.406;6.856;2023-03-01T08:27:02;19.03;;;12.50;;
3712;SDS011;1872;51.406;6.856;2023-03-01T08:29:29;15.07;;;11.27;;
3712;SDS011;1872;51.406;6.856;2023-03-01T08:31:56;15.20;;;11.40;;
3712;SDS011;1872;51.406;6.856;2023-03-01T08:34:21;17.33;;;11.97;;
3712;SDS011;1872;51.406;6.856;2023-03-01T08:36:47;16.57;;;12.40;;
3712;SDS011;1872;51.406;6.856;2023-03-01T08:39:15;16.67;;;12.40;;
3712;SDS011;1872;51.406;6.856;2023-03-01T08:41:42;13.93;;;11.77;;
3712;SDS011;1872;51.406;6.856;2023-03-01T08:44:09;16.23;;;10.53;;
3712;SDS011;1872;51.406;6.856;2023-03-01T08:46:40;16.07;;;10.53;;
3712;SDS011;1872;51.406;6.856;2023-03-01T08:49:07;16.30;;;10.80;;
3712;SDS011;1872;51.406;6.856;2023-03-01T08:51:34;16.37;;;11.20;;
3712;SDS011;1872;51.406;6.856;2023-03-01T08:54:05;15.10;;;10.70;;
3712;SDS011;1872;51.406;6.856;2023-03-01T08:56:32;13.80;;;11.03;;
3712;SDS011;1872;51.406;6.856;2023-03-01T08:58:59;10.87;;;9.37;;
3712;SDS011;1872;51.406;6.856;2023-03-01T09:01:24;13.10;;;9.77;;
3712;SDS011;1872;51.406;6.856;2023-03-01T09:03:50;11.90;;;9.90;;
3712;SDS011;1872;51.406;6.856;2023-03-01T09:06:16;13.30;;;10.20;;
3712;SDS011;1872;51.406;6.856;2023-03-01T09:08:43;15.23;;;10.43;;
3712;SDS011;1872;51.406;6.856;2023-03-01T09:11:11;13.53;;;10.10;;
3712;SDS011;1872;51.406;6.856;2023-03-01T09:13:38;12.23;;;10.57;;
3712;SDS011;1872;51.406;6.856;2023-03-01T09:16:05;14.47;;;10.50;;
3712;SDS011;1872;51.406;6.856;2023-03-01T09:18:32;13.50;;;10.70;;
3712;SDS011;1872;51.406;6.856;2023-03-01T09:21:06;15.47;;;11.10;;
3712;SDS011;1872;51.406;6.856;2023-03-01T09:23:34;16.53;;;10.90;;
3712;SDS011;1872;51.406;6.856;2023-03-01T09:26:08;14.80;;;10.20;;
3712;SDS011;1872;51.406;6.856;2023-03-01T09:28:36;13.27;;;10.30;;
3712;SDS011;1872;51.406;6.856;2023-03-01T09:31:02;17.70;;;11.77;;
3712;SDS011;1872;51.406;6.856;2023-03-01T09:33:29;12.90;;;10.10;;
3712;SDS011;1872;51.406;6.856;2023-03-01T09:35:59;15.27;;;11.10;;
3712;SDS011;1872;51.406;6.856;2023-03-01T09:38:29;16.40;;;10.63;;
3712;SDS011;1872;51.406;6.856;2023-03-01T09:40:56;16.23;;;12.27;;
3712;SDS011;1872;51.406;6.856;2023-03-01T09:43:37;13.83;;;10.77;;
3712;SDS011;1872;51.406;6.856;2023-03-01T09:46:19;15.00;;;10.97;;
3712;SDS011;1872;51.406;6.856;2023-03-01T09:48:57;11.83;;;10.20;;
3712;SDS011;1872;51.406;6.856;2023-03-01T09:51:29;15.00;;;11.63;;
3712;SDS011;1872;51.406;6.856;2023-03-01T09:54:03;17.27;;;10.43;;
3712;SDS011;1872;51.406;6.856;2023-03-01T09:56:34;15.90;;;11.23;;
3712;SDS011;1872;51.406;6.856;2023-03-01T10:07:12;12.00;;;10.30;;
3712;SDS011;1872;51.406;6.856;2023-03-01T10:09:41;13.20;;;9.23;;
3712;SDS011;1872;51.406;6.856;2023-03-01T10:12:10;14.60;;;11.33;;
3712;SDS011;1872;51.406;6.856;2023-03-01T10:17:43;16.23;;;9.93;;
3712;SDS011;1872;51.406;6.856;2023-03-01T10:20:24;13.67;;;10.60;;
3712;SDS011;1872;51.406;6.856;2023-03-01T10:22:52;14.60;;;9.80;;
3712;SDS011;1872;51.406;6.856;2023-03-01T10:28:16;12.97;;;10.30;;
3712;SDS011;1872;51.406;6.856;2023-03-01T10:30:50;19.57;;;11.00;;
3712;SDS011;1872;51.406;6.856;2023-03-01T10:33:22;11.60;;;9.50;;
3712;SDS011;1872;51.406;6.856;2023-03-01T10:35:50;14.07;;;9.87;;
3712;SDS011;1872;51.406;6.856;2023-03-01T10:38:17;14.33;;;9.33;;
3712;SDS011;1872;51.406;6.856;2023-03-01T10:40:59;12.90;;;9.13;;
3712;SDS011;1872;51.406;6.856;2023-03-01T10:43:45;16.10;;;10.87;;
3712;SDS011;1872;51.406;6.856;2023-03-01T10:49:39;12.63;;;9.33;;
3712;SDS011;1872;51.406;6.856;2023-03-01T10:51:48;11.70;;;8.93;;
3712;SDS011;1872;51.406;6.856;2023-03-01T10:54:17;15.77;;;10.27;;
3712;SDS011;1872;51.406;6.856;2023-03-01T10:57:05;11.90;;;9.03;;
3712;SDS011;1872;51.406;6.856;2023-03-01T11:00:00;10.10;;;8.60;;
3712;SDS011;1872;51.406;6.856;2023-03-01T11:02:48;15.27;;;9.33;;
3712;SDS011;1872;51.406;6.856;2023-03-01T11:05:17;11.30;;;10.00;;
3712;SDS011;1872;51.406;6.856;2023-03-01T11:07:47;10.20;;;8.20;;
3712;SDS011;1872;51.406;6.856;2023-03-01T11:10:18;12.20;;;8.30;;
3712;SDS011;1872;51.406;6.856;2023-03-01T11:12:45;10.47;;;8.33;;
3712;SDS011;1872;51.406;6.856;2023-03-01T11:15:24;11.77;;;7.90;;
3712;SDS011;1872;51.406;6.856;2023-03-01T11:17:55;9.90;;;7.67;;
3712;SDS011;1872;51.406;6.856;2023-03-01T11:20:40;9.60;;;7.47;;
3712;SDS011;1872;51.406;6.856;2023-03-01T11:23:13;11.03;;;8.50;;
3712;SDS011;1872;51.406;6.856;2023-03-01T11:25:41;11.80;;;8.13;;
3712;SDS011;1872;51.406;6.856;2023-03-01T11:28:12;10.93;;;8.17;;
3712;SDS011;1872;51.406;6.856;2023-03-01T11:33:34;10.47;;;8.10;;
3712;SDS011;1872;51.406;6.856;2023-03-01T11:36:07;11.13;;;7.43;;
3712;SDS011;1872;51.406;6.856;2023-03-01T11:38:53;9.93;;;7.87;;
3712;SDS011;1872;51.406;6.856;2023-03-01T11:41:20;9.30;;;7.83;;
3712;SDS011;1872;51.406;6.856;2023-03-01T11:46:34;11.43;;;8.80;;
3712;SDS011;1872;51.406;6.856;2023-03-01T11:49:30;12.53;;;8.10;;
3712;SDS011;1872;51.406;6.856;2023-03-01T11:54:37;9.67;;;8.27;;
3712;SDS011;1872;51.406;6.856;2023-03-01T12:10:19;10.70;;;8.17;;
3712;SDS011;1872;51.406;6.856;2023-03-01T12:16:17;10.63;;;8.03;;
3712;SDS011;1872;51.406;6.856;2023-03-01T12:22:20;10.77;;;8.10;;
3712;SDS011;1872;51.406;6.856;2023-03-01T12:24:55;12.90;;;8.93;;
3712;SDS011;1872;51.406;6.856;2023-03-01T12:27:33;11.27;;;9.07;;
3712;SDS011;1872;51.406;6.856;2023-03-01T12:30:17;13.27;;;9.03;;
3712;SDS011;1872;51.406;6.856;2023-03-01T12:38:41;10.30;;;8.43;;
3712;SDS011;1872;51.406;6.856;2023-03-01T12:46:45;11.30;;;8.40;;
3712;SDS011;1872;51.406;6.856;2023-03-01T12:49:31;12.43;;;8.23;;
3712;SDS011;1872;51.406;6.856;2023-03-01T12:55:08;11.20;;;8.60;;
3712;SDS011;1872;51.406;6.856;2023-03-01T12:58:04;9.40;;;8.00;;
3712;SDS011;1872;51.406;6.856;2023-03-01T13:09:18;15.27;;;8.50;;
3712;SDS011;1872;51.406;6.856;2023-03-01T13:11:45;10.97;;;8.90;;
3712;SDS011;1872;51.406;6.856;2023-03-01T13:16:46;10.40;;;8.00;;
3712;SDS011;1872;51.406;6.856;2023-03-01T13:19:19;11.30;;;8.70;;
3712;SDS011;1872;51.406;6.856;2023-03-01T13:21:54;10.80;;;9.07;;
3712;SDS011;1872;51.406;6.856;2023-03-01T13:29:57;11.00;;;8.83;;
3712;SDS011;1872;51.406;6.856;2023-03-01T13:37:28;11.00;;;8.60;;
3712;SDS011;1872;51.406;6.856;2023-03-01T13:39:59;12.73;;;9.40;;
3712;SDS011;1872;51.406;6.856;2023-03-01T13:44:58;10.40;;;8.53;;
3712;SDS011;1872;51.406;6.856;2023-03-01T13:47:25;13.60;;;9.00;;
3712;SDS011;1872;51.406;6.856;2023-03-01T13:50:00;12.83;;;9.00;;
3712;SDS011;1872;51.406;6.856;2023-03-01T13:57:59;16.83;;;9.47;;
3712;SDS011;1872;51.406;6.856;2023-03-01T14:00:30;12.43;;;9.53;;
3712;SDS011;1872;51.406;6.856;2023-03-01T14:05:44;11.87;;;8.50;;
3712;SDS011;1872;51.406;6.856;2023-03-01T14:08:24;11.03;;;8.60;;
3712;SDS011;1872;51.406;6.856;2023-03-01T14:11:09;12.47;;;8.33;;
3712;SDS011;1872;51.406;6.856;2023-03-01T14:14:13;11.80;;;8.70;;
3712;SDS011;1872;51.406;6.856;2023-03-01T14:19:17;13.57;;;8.87;;
3712;SDS011;1872;51.406;6.856;2023-03-01T14:21:49;10.90;;;8.83;;
3712;SDS011;1872;51.406;6.856;2023-03-01T14:24:37;15.95;;;9.27;;
3712;SDS011;1872;51.406;6.856;2023-03-01T14:27:11;13.80;;;10.20;;
3712;SDS011;1872;51.406;6.856;2023-03-01T14:29:38;12.70;;;8.97;;
3712;SDS011;1872;51.406;6.856;2023-03-01T14:32:09;12.20;;;8.90;;
3712;SDS011;1872;51.406;6.856;2023-03-01T14:34:45;17.80;;;9.47;;
3712;SDS011;1872;51.406;6.856;2023-03-01T14:39:55;9.63;;;8.53;;
3712;SDS011;1872;51.406;6.856;2023-03-01T14:42:23;14.60;;;10.00;;
3712;SDS011;1872;51.406;6.856;2023-03-01T14:44:53;10.20;;;9.10;;
3712;SDS011;1872;51.406;6.856;2023-03-01T14:47:31;11.67;;;8.80;;
3712;SDS011;1872;51.406;6.856;2023-03-01T14:50:04;14.20;;;9.50;;
3712;SDS011;1872;51.406;6.856;2023-03-01T14:52:40;14.60;;;9.30;;
3712;SDS011;1872;51.406;6.856;2023-03-01T14:55:16;13.30;;;9.67;;
3712;SDS011;1872;51.406;6.856;2023-03-01T14:57:45;12.20;;;8.27;;
3712;SDS011;1872;51.406;6.856;2023-03-01T15:00:16;12.60;;;9.00;;
3712;SDS011;1872;51.406;6.856;2023-03-01T15:02:50;13.27;;;8.60;;
3712;SDS011;1872;51.406;6.856;2023-03-01T15:05:18;15.17;;;9.13;;
3712;SDS011;1872;51.406;6.856;2023-03-01T15:08:04;11.40;;;8.77;;
3712;SDS011;1872;51.406;6.856;2023-03-01T15:10:34;11.70;;;8.60;;
3712;SDS011;1872;51.406;6.856;2023-03-01T15:13:19;14.57;;;10.97;;
3712;SDS011;1872;51.406;6.856;2023-03-01T15:15:48;12.17;;;8.73;;
3712;SDS011;1872;51.406;6.856;2023-03-01T15:18:24;11.53;;;9.27;;
3712;SDS011;1872;51.406;6.856;2023-03-01T15:21:14;12.40;;;8.70;;
3712;SDS011;1872;51.406;6.856;2023-03-01T15:23:47;10.93;;;8.63;;
3712;SDS011;1872;51.406;6.856;2023-03-01T15:26:21;13.30;;;8.80;;
3712;SDS011;1872;51.406;6.856;2023-03-01T15:28:54;15.30;;;9.57;;
3712;SDS011;1872;51.406;6.856;2023-03-01T15:31:26;12.70;;;9.40;;
3712;SDS011;1872;51.406;6.856;2023-03-01T15:36:52;12.10;;;9.23;;
3712;SDS011;1872;51.406;6.856;2023-03-01T15:39:39;12.57;;;8.93;;
3712;SDS011;1872;51.406;6.856;2023-03-01T15:42:36;16.37;;;10.20;;
3712;SDS011;1872;51.406;6.856;2023-03-01T15:48:04;11.50;;;9.57;;
3712;SDS011;1872;51.406;6.856;2023-03-01T15:50:41;12.67;;;8.30;;
3712;SDS011;1872;51.406;6.856;2023-03-01T15:53:11;12.43;;;9.07;;
3712;SDS011;1872;51.406;6.856;2023-03-01T15:55:41;13.23;;;9.07;;
3712;SDS011;1872;51.406;6.856;2023-03-01T15:58:12;13.47;;;9.43;;
3712;SDS011;1872;51.406;6.856;2023-03-01T16:00:43;13.20;;;9.20;;
3712;SDS011;1872;51.406;6.856;2023-03-01T16:03:13;13.00;;;9.10;;
3712;SDS011;1872;51.406;6.856;2023-03-01T16:05:39;13.60;;;9.53;;
3712;SDS011;1872;51.406;6.856;2023-03-01T16:08:05;12.53;;;9.63;;
3712;SDS011;1872;51.406;6.856;2023-03-01T16:10:32;12.90;;;9.43;;
3712;SDS011;1872;51.406;6.856;2023-03-01T16:12:58;13.20;;;8.70;;
3712;SDS011;1872;51.406;6.856;2023-03-01T16:15:31;10.63;;;8.97;;
3712;SDS011;1872;51.406;6.856;2023-03-01T16:17:59;9.40;;;7.87;;
3712;SDS011;1872;51.406;6.856;2023-03-01T16:20:25;14.90;;;9.67;;
3712;SDS011;1872;51.406;6.856;2023-03-01T16:22:52;10.40;;;8.77;;
3712;SDS011;1872;51.406;6.856;2023-03-01T16:25:18;12.27;;;8.73;;
3712;SDS011;1872;51.406;6.856;2023-03-01T16:27:46;13.97;;;10.10;;
3712;SDS011;1872;51.406;6.856;2023-03-01T16:30:14;13.10;;;9.90;;
3712;SDS011;1872;51.406;6.856;2023-03-01T16:32:42;12.53;;;9.70;;
3712;SDS011;1872;51.406;6.856;2023-03-01T16:35:09;13.00;;;9.40;;
3712;SDS011;1872;51.406;6.856;2023-03-01T16:37:37;12.70;;;9.27;;
3712;SDS011;1872;51.406;6.856;2023-03-01T16:40:05;14.40;;;9.60;;
3712;SDS011;1872;51.406;6.856;2023-03-01T16:42:37;13.17;;;8.90;;
3712;SDS011;1872;51.406;6.856;2023-03-01T16:45:03;10.93;;;8.80;;
3712;SDS011;1872;51.406;6.856;2023-03-01T16:47:29;10.87;;;9.30;;
3712;SDS011;1872;51.406;6.856;2023-03-01T16:49:55;10.03;;;8.57;;
3712;SDS011;1872;51.406;6.856;2023-03-01T16:52:21;12.00;;;8.97;;
3712;SDS011;1872;51.406;6.856;2023-03-01T16:54:47;9.87;;;8.43;;
3712;SDS011;1872;51.406;6.856;2023-03-01T16:57:13;13.47;;;9.10;;
3712;SDS011;1872;51.406;6.856;2023-03-01T16:59:39;12.57;;;8.50;;
3712;SDS011;1872;51.406;6.856;2023-03-01T17:02:06;11.50;;;8.60;;